Portada
METAR-TAF:

METAR-TAF

Aeroports :

Ramstein, Alemanya

latitud: 49-26N, longitud: 007-36E, altitud: 238 m

Observació

L'informe es va fer fa 21 minuts, a les 03:56 UTC
Vent calma
Temperatura 14°C
Humitat 94%
Pressió 1016 hPa
Visibilitat 10 km o més
Cel clar

METAR: ETAR 240356Z AUTO 00000KT 9999 CLR 14/13 A3001 RMK AO2 SLP154 T01370127

Hora: 06:17 (04:17 UTC)

Pronòstic

L'informe es va fer fa 2 hores i 4 minuts, a les 02:13 UTC
Pronòstic vàlid del 24 a les 02 UTC al 25 a les 08 UTC
Vent 6 kt amb direcció variable
Visibilitat 10 km o més
Cel clar

TAF: ETAR 240213Z 2402/2508 VRB06KT 9999 SKC QNH2997INS TX35/2414Z TN13/2403Z

Observacions i pronòstics meteorològics de més de 4000 aeroports (METAR i TAF).

Les estacions disponibles són els punts grocs i vermells al mapa.

Posi el ratolí al punt desitjat per veure el nom de l'estació.

Feu clic per veure les observacions i els pronòstics meteorològics.

Per canviar el mapa: feu clic els botons verds amb una creu de color negre per apropar; al botó verd amb un guió per allunyar la imatge; o en les fletxes verdes per a mapes adjacents.


METAR-TAF: